หน้าหลัก
METAR-TAF:

METAR-TAF

ท่าอากาศยาน :

ยาคุตสค์, รัสเซีย

ละติจูด: 62-01N, ลองจิจูด: 129-43E, ความสูง: 103 ม.

การสังเกตสภาพอากาศปัจจุบัน

รายงานได้ทำขึ้นเมื่อ 25 นาทีที่แล้ว ณ เวลา 19:30 UTC
ลม 4 นอตจากเหนือ/ตะวันตกเฉียงเหนือ
อุณหภูมิ -14°C
ความชื้น 66%
ความกดอากาศ 1012 hPa
ทัศนวิสัย 10 กม. หรือมากกว่า
ไม่มีเมฆต่ำกว่า 1,500 ม. และไม่มีเมฆคิวมูโลนิมบัส

METAR: UEEE 151930Z 34002MPS CAVOK M14/M19 Q1012 R23/09//60 NOSIG RMK QFE750

เวลา: 04:55 (19:55 UTC)

การพยากรณ์

รายงานได้ทำขึ้นเมื่อ 2 ชั่วโมงและ 55 นาทีที่แล้ว ณ เวลา 17:00 UTC
การพยากรณ์มีผลตั้งแต่วันที่ 15 ณ เวลา 18 UTC จนถึงวันที่ 16 ณ เวลา 24 UTC
ลม 6 นอตจากเหนือ/ตะวันออกเฉียงเหนือโดยมีลมกระโชกได้ถึง16 นอต
ทัศนวิสัย 10 กม. หรือมากกว่า
ไม่มีเมฆต่ำกว่า 1,500 ม. และไม่มีเมฆคิวมูโลนิมบัส

TAF: UEEE 151700Z 1518/1624 02003G08MPS CAVOK

สังเกตการณ์สภาพอากาศและพยากรณ์อากาศของสนามบินมากกว่า 4000 แห่ง (รายงาน METAR และ TAF).

สถานีที่ดูได้จะแสดงไว้ด้วยจุดสีเหลืองและสีแดงบนแผนที่.

เลื่อนเมาส์ไปเหนือจุดเพื่อดูชื่อสถานี.

แล้วคลิกเพื่อดูสังเกตการณ์และการพยากรณ์สภาพอากาศ.

ในการเปลี่ยนแผนที่: คลิกที่ปุ่มสีเขียวที่มีกากบาทสีดำเพื่อซูมเข้า; ที่ปุ่มสีเขียวที่มีขีดเพื่อซูมออก; หรือที่ลูกศรสีเขียวเพื่อไปยังแผนที่ที่อยู่ติดกัน.


METAR-TAF: